Time;durP1;ratioP1;P1;durP2;ratioP2;P2;SDS_P1;SDS_P2;PMS_P1;PMS_P2;Temp;Humidity;BMP_temperature;BMP_pressure;BME280_temperature;BME280_humidity;BME280_pressure;Samples;Min_cycle;Max_cycle;Signal;HPM_P1;HPM_P2
2021/08/06 00:00:27;;;;;;;18.67;15.13;;;;;;;14.27;87.80;99152.67;2007974;85;21069;-75
2021/08/06 00:03:29;;;;;;;17.27;14.75;;;;;;;14.26;87.83;99136.38;1999715;86;21201;-74
2021/08/06 00:06:30;;;;;;;15.45;13.95;;;;;;;14.25;87.84;99138.23;2009397;85;21065;-81
2021/08/06 00:09:36;;;;;;;18.25;14.53;;;;;;;14.25;87.92;99133.41;2009640;85;21090;-75
2021/08/06 00:12:37;;;;;;;15.35;13.85;;;;;;;14.24;87.94;99136.58;2009345;85;21104;-77
2021/08/06 00:15:39;;;;;;;18.65;14.13;;;;;;;14.23;88.02;99127.47;2011333;86;21108;-75
2021/08/06 00:18:40;;;;;;;14.58;12.58;;;;;;;14.21;88.10;99129.52;2015740;85;21093;-75
2021/08/06 00:21:42;;;;;;;13.28;11.85;;;;;;;14.20;88.08;99128.71;2018780;85;21065;-76
2021/08/06 00:24:43;;;;;;;14.45;12.95;;;;;;;14.18;88.18;99126.77;2032169;85;21116;-80
2021/08/06 00:27:45;;;;;;;13.78;12.35;;;;;;;14.16;88.20;99126.16;2015623;85;21668;-75
2021/08/06 00:30:46;;;;;;;17.15;12.98;;;;;;;14.17;88.24;99126.47;2011479;86;21129;-74
2021/08/06 00:33:48;;;;;;;13.20;12.00;;;;;;;14.17;88.28;99121.14;2010608;85;21117;-74
2021/08/06 00:36:53;;;;;;;14.73;13.20;;;;;;;14.17;88.24;99125.14;2005920;86;21110;-75
2021/08/06 00:39:55;;;;;;;13.00;11.70;;;;;;;14.18;88.32;99121.95;2017725;85;22364;-75
2021/08/06 00:42:58;;;;;;;12.43;11.22;;;;;;;14.19;88.31;99119.08;2001803;84;21203;-75
2021/08/06 00:46:03;;;;;;;12.15;10.35;;;;;;;14.19;88.29;99121.75;2002749;86;21141;-80
2021/08/06 00:49:06;;;;;;;10.08;9.18;;;;;;;14.19;88.36;99116.41;2006904;85;21144;-76
2021/08/06 00:52:10;;;;;;;10.43;9.53;;;;;;;14.22;88.38;99118.65;2007565;85;21181;-75
2021/08/06 00:55:13;;;;;;;11.68;10.38;;;;;;;14.22;88.37;99113.80;2008134;85;21093;-80
2021/08/06 00:58:16;;;;;;;12.05;10.10;;;;;;;14.22;88.38;99118.65;2008960;86;21111;-74
2021/08/06 01:01:20;;;;;;;11.60;10.55;;;;;;;14.23;88.40;99112.27;2015613;85;21127;-77
2021/08/06 01:04:32;;;;;;;12.05;10.95;;;;;;;14.24;88.46;99114.42;2002230;84;21141;-75
2021/08/06 01:08:12;;;;;;;12.75;11.45;;;;;;;14.26;88.44;99111.84;2003730;86;21577;-74
2021/08/06 01:11:18;;;;;;;13.72;12.25;;;;;;;14.26;88.46;99103.84;2013250;86;21105;-75
2021/08/06 01:14:24;;;;;;;13.93;12.53;;;;;;;14.26;88.47;99107.02;2006861;85;21053;-75
2021/08/06 01:17:30;;;;;;;14.18;12.78;;;;;;;14.26;88.63;99108.36;2015940;85;21145;-77
2021/08/06 01:20:39;;;;;;;14.47;13.03;;;;;;;14.27;88.58;99107.31;2013434;86;21142;-74
2021/08/06 01:23:43;;;;;;;13.93;12.33;;;;;;;14.25;88.66;99098.73;2014923;85;21378;-79
2021/08/06 01:26:48;;;;;;;13.65;12.35;;;;;;;14.26;88.74;99098.50;1992029;86;21081;-77
2021/08/06 01:29:52;;;;;;;14.45;13.00;;;;;;;14.25;88.75;99095.55;2007641;86;21146;-75
2021/08/06 01:32:58;;;;;;;15.20;13.68;;;;;;;14.26;88.61;99094.50;2012302;86;21117;-75
2021/08/06 01:36:01;;;;;;;14.45;12.93;;;;;;;14.26;88.63;99084.34;2002604;85;21064;-74
2021/08/06 01:39:04;;;;;;;14.80;13.35;;;;;;;14.25;88.58;99090.20;2007595;85;21124;-74
2021/08/06 01:42:28;;;;;;;15.20;13.80;;;;;;;14.27;88.52;99093.97;2005347;86;21164;-75
2021/08/06 01:45:37;;;;;;;14.65;13.20;;;;;;;14.26;88.44;99099.83;1998059;85;21257;-74
2021/08/06 01:48:42;;;;;;;14.18;12.68;;;;;;;14.25;88.39;99090.20;2009528;87;21172;-74
2021/08/06 01:51:50;;;;;;;16.65;13.13;;;;;;;14.24;88.45;99085.07;1996146;85;21097;-75
2021/08/06 01:54:54;;;;;;;13.98;12.53;;;;;;;14.21;88.38;99086.31;2022980;85;21639;-74
2021/08/06 01:58:00;;;;;;;14.28;12.88;;;;;;;14.20;88.55;99092.70;2013406;85;21110;-75
2021/08/06 02:01:04;;;;;;;16.17;13.13;;;;;;;14.16;88.53;99090.14;2012691;85;21115;-74
2021/08/06 02:04:06;;;;;;;14.73;13.25;;;;;;;14.15;88.51;99088.52;1979674;86;21626;-74
2021/08/06 02:07:08;;;;;;;15.08;13.58;;;;;;;14.13;88.63;99091.41;2004625;86;21154;-75
2021/08/06 02:10:13;;;;;;;14.55;13.05;;;;;;;14.10;88.92;99085.14;2000438;87;21145;-74
2021/08/06 02:13:14;;;;;;;19.35;13.78;;;;;;;14.09;88.84;99087.52;2004366;86;21102;-74
2021/08/06 02:16:18;;;;;;;15.03;13.20;;;;;;;14.10;88.72;99091.00;2012293;84;21112;-80
2021/08/06 02:19:23;;;;;;;15.65;13.53;;;;;;;14.10;88.68;99083.81;2015922;85;21187;-74
2021/08/06 02:22:27;;;;;;;15.38;13.70;;;;;;;14.09;88.69;99084.86;2003201;86;21128;-77
2021/08/06 02:25:30;;;;;;;14.83;13.32;;;;;;;14.09;88.81;99088.05;2006295;85;21129;-74
2021/08/06 02:28:35;;;;;;;16.23;14.53;;;;;;;14.08;88.82;99077.89;2008094;86;21155;-74
2021/08/06 02:31:40;;;;;;;14.47;13.15;;;;;;;14.08;88.88;99075.23;2004732;85;21742;-76
2021/08/06 02:34:42;;;;;;;15.65;14.15;;;;;;;14.06;88.82;99075.95;2005150;85;21920;-74
2021/08/06 02:37:46;;;;;;;15.23;13.65;;;;;;;14.07;88.79;99071.43;2016387;84;21126;-74
2021/08/06 02:40:48;;;;;;;16.17;14.03;;;;;;;14.08;88.81;99071.75;2012986;85;21651;-74
2021/08/06 02:43:49;;;;;;;19.52;15.30;;;;;;;14.09;88.81;99067.52;2015962;85;21540;-74
2021/08/06 02:46:51;;;;;;;18.55;12.78;;;;;;;14.09;88.82;99070.70;1977613;88;21119;-74
2021/08/06 02:49:53;;;;;;;14.70;13.00;;;;;;;14.08;88.81;99067.23;2016298;86;21136;-75
2021/08/06 02:52:54;;;;;;;15.45;13.38;;;;;;;14.08;88.76;99066.42;2008395;86;21632;-79
2021/08/06 02:55:55;;;;;;;14.85;13.45;;;;;;;14.08;88.81;99074.42;2010034;86;21130;-76
2021/08/06 02:58:59;;;;;;;14.18;12.82;;;;;;;14.08;88.77;99063.23;2024649;85;21090;-74
2021/08/06 03:02:01;;;;;;;14.03;12.73;;;;;;;14.09;88.83;99064.04;2010735;86;21406;-75
2021/08/06 03:05:04;;;;;;;19.42;12.75;;;;;;;14.09;88.75;99065.38;2001215;86;21086;-75
2021/08/06 03:08:05;;;;;;;15.40;12.73;;;;;;;14.08;88.65;99060.56;1993301;85;21140;-76
2021/08/06 03:11:07;;;;;;;14.47;12.98;;;;;;;14.08;88.68;99062.41;2009328;85;21093;-77
2021/08/06 03:14:09;;;;;;;13.80;12.00;;;;;;;14.07;88.75;99061.57;2000951;87;21120;-76
2021/08/06 03:17:11;;;;;;;13.98;12.58;;;;;;;14.08;88.71;99065.89;2016773;86;21571;-75
2021/08/06 03:20:20;;;;;;;12.65;11.35;;;;;;;14.06;88.67;99065.28;2005642;86;21089;-74
2021/08/06 03:23:23;;;;;;;13.43;11.90;;;;;;;14.08;88.68;99067.75;2016167;84;21148;-79
2021/08/06 03:26:26;;;;;;;13.03;11.75;;;;;;;14.09;88.66;99070.70;1984675;87;21613;-76
2021/08/06 03:29:27;;;;;;;17.20;11.65;;;;;;;14.08;88.65;99072.56;1986963;85;21140;-80
2021/08/06 03:32:30;;;;;;;13.83;12.20;;;;;;;14.09;88.71;99069.38;1981152;87;21113;-75
2021/08/06 03:35:33;;;;;;;15.18;13.03;;;;;;;14.10;88.66;99068.33;1952495;88;21615;-75
2021/08/06 03:38:35;;;;;;;13.75;12.00;;;;;;;14.10;88.67;99067.81;1978689;88;21132;-74
2021/08/06 03:41:36;;;;;;;15.48;12.47;;;;;;;14.10;88.64;99069.66;1976102;88;21112;-74
2021/08/06 03:44:38;;;;;;;15.13;13.50;;;;;;;14.10;88.74;99067.00;1948665;88;21125;-75
2021/08/06 03:47:40;;;;;;;17.77;12.78;;;;;;;14.09;88.77;99073.38;1972510;87;21763;-76
2021/08/06 03:50:42;;;;;;;14.53;13.05;;;;;;;14.10;88.80;99068.33;1982234;88;21123;-74
2021/08/06 03:53:45;;;;;;;16.65;13.13;;;;;;;14.10;88.74;99069.66;2003446;86;21104;-75
2021/08/06 03:56:47;;;;;;;15.70;14.05;;;;;;;14.10;88.78;99062.47;2008409;87;21088;-78
2021/08/06 03:59:49;;;;;;;14.73;13.32;;;;;;;14.10;88.75;99066.47;1963595;87;21161;-76
2021/08/06 04:02:51;;;;;;;15.70;14.00;;;;;;;14.13;88.79;99073.23;1946192;88;21597;-77
2021/08/06 04:05:52;;;;;;;15.85;14.18;;;;;;;14.15;88.81;99077.03;2003807;85;21109;-76
2021/08/06 04:08:55;;;;;;;15.63;13.85;;;;;;;14.17;88.80;99065.11;2000486;86;21133;-75
2021/08/06 04:11:57;;;;;;;14.47;12.98;;;;;;;14.16;88.77;99070.13;2005355;85;21109;-74
2021/08/06 04:14:59;;;;;;;14.65;13.15;;;;;;;14.16;88.75;99074.13;2006895;86;21108;-77
2021/08/06 04:18:01;;;;;;;15.58;14.03;;;;;;;14.19;88.85;99069.73;2004796;85;21420;-76
2021/08/06 04:21:03;;;;;;;14.60;13.00;;;;;;;14.20;88.76;99062.53;1992408;86;21626;-78
2021/08/06 04:24:05;;;;;;;14.75;13.13;;;;;;;14.21;88.83;99060.97;1999719;86;22340;-75
2021/08/06 04:27:06;;;;;;;15.43;13.83;;;;;;;14.21;88.80;99062.83;1995675;86;21158;-74
2021/08/06 04:30:11;;;;;;;14.07;12.33;;;;;;;14.21;88.84;99056.97;2001017;87;21180;-77
2021/08/06 04:33:12;;;;;;;16.82;13.22;;;;;;;14.21;88.80;99059.64;1926160;89;21144;-74
2021/08/06 04:36:13;;;;;;;15.15;13.68;;;;;;;14.22;88.82;99053.78;1961287;88;21135;-74
2021/08/06 04:39:15;;;;;;;14.03;12.63;;;;;;;14.23;88.88;99057.58;1976301;88;21164;-75
2021/08/06 04:42:17;;;;;;;15.70;14.00;;;;;;;14.24;88.86;99059.20;1972993;88;21579;-76
2021/08/06 04:45:18;;;;;;;14.63;13.28;;;;;;;14.27;88.84;99048.09;1936470;89;21224;-74
2021/08/06 04:48:22;;;;;;;14.65;12.98;;;;;;;14.31;88.82;99057.84;1980696;86;21470;-76
2021/08/06 04:51:24;;;;;;;14.87;13.40;;;;;;;14.34;88.84;99066.22;1939061;88;21139;-74
2021/08/06 04:54:27;;;;;;;14.03;12.53;;;;;;;14.37;88.84;99064.16;1952456;87;21117;-76
2021/08/06 04:57:29;;;;;;;15.75;11.83;;;;;;;14.39;88.86;99066.92;1964450;87;21073;-74
2021/08/06 05:00:30;;;;;;;13.98;11.97;;;;;;;14.43;88.82;99069.95;1931735;88;21755;-77
2021/08/06 05:03:32;;;;;;;12.78;11.55;;;;;;;14.45;88.78;99063.37;1967101;88;21087;-74
2021/08/06 05:06:34;;;;;;;13.68;11.85;;;;;;;14.46;88.85;99076.20;1976709;88;21164;-75
2021/08/06 05:09:36;;;;;;;13.60;12.20;;;;;;;14.49;88.92;99073.09;1986264;87;21142;-74
2021/08/06 05:12:37;;;;;;;13.38;12.07;;;;;;;14.52;88.88;99066.01;1977033;87;21117;-77
2021/08/06 05:15:39;;;;;;;15.43;13.78;;;;;;;14.55;88.80;99065.57;1967267;88;21124;-74
2021/08/06 05:18:41;;;;;;;14.47;13.08;;;;;;;14.56;88.88;99064.55;1969552;88;21173;-76
2021/08/06 05:21:43;;;;;;;13.72;12.15;;;;;;;14.57;88.84;99066.18;1966187;88;21082;-75
2021/08/06 05:24:45;;;;;;;14.73;13.15;;;;;;;14.59;88.84;99067.31;1968702;88;21242;-75
2021/08/06 05:27:47;;;;;;;17.77;13.55;;;;;;;14.60;88.90;99068.41;1964751;88;21076;-77
2021/08/06 05:30:49;;;;;;;14.35;12.95;;;;;;;14.62;88.88;99068.20;1957597;88;21163;-74
2021/08/06 05:33:51;;;;;;;14.93;13.43;;;;;;;14.65;88.92;99061.91;1966088;88;21148;-77
2021/08/06 05:36:54;;;;;;;16.62;15.03;;;;;;;14.68;88.88;99055.31;1960590;86;21141;-77
2021/08/06 05:39:55;;;;;;;16.50;14.55;;;;;;;14.68;88.97;99056.64;1966852;88;21209;-77
2021/08/06 05:42:57;;;;;;;17.10;14.33;;;;;;;14.70;88.99;99066.08;1971295;88;21198;-75
2021/08/06 05:45:59;;;;;;;16.42;14.85;;;;;;;14.74;88.96;99061.10;1929760;89;21177;-75
2021/08/06 05:49:02;;;;;;;18.35;15.65;;;;;;;14.78;89.05;99060.45;1976664;88;21097;-77
2021/08/06 05:52:05;;;;;;;18.45;16.60;;;;;;;14.83;88.94;99058.97;1965817;88;21144;-74
2021/08/06 05:55:09;;;;;;;17.77;15.98;;;;;;;14.90;88.92;99057.06;1921036;88;21125;-75
2021/08/06 05:58:11;;;;;;;15.88;14.38;;;;;;;14.98;88.95;99064.27;1976288;87;21092;-74
2021/08/06 06:01:13;;;;;;;15.65;13.93;;;;;;;15.03;88.82;99055.57;2001945;86;21674;-74
2021/08/06 06:04:16;;;;;;;16.12;14.50;;;;;;;15.11;88.73;99050.47;1949764;87;21132;-76
2021/08/06 06:07:25;;;;;;;18.25;14.38;;;;;;;15.21;88.65;99050.77;2014113;86;21123;-73
2021/08/06 06:10:29;;;;;;;16.25;14.65;;;;;;;15.32;88.53;99051.37;1967562;88;21134;-75
2021/08/06 06:13:31;;;;;;;17.07;15.28;;;;;;;15.43;88.36;99053.81;1967330;88;21156;-75
2021/08/06 06:16:32;;;;;;;16.87;15.10;;;;;;;15.49;88.17;99058.78;1957657;87;21182;-83
2021/08/06 06:19:34;;;;;;;16.80;14.43;;;;;;;15.51;87.84;99068.19;1958843;87;21194;-78
2021/08/06 06:22:36;;;;;;;17.70;13.93;;;;;;;15.54;87.84;99062.91;1952297;88;21640;-74
2021/08/06 06:25:37;;;;;;;16.10;13.85;;;;;;;15.59;87.82;99069.75;1977487;87;21124;-77
2021/08/06 06:28:40;;;;;;;14.07;12.75;;;;;;;15.72;87.83;99067.47;2005460;85;21128;-73
2021/08/06 06:31:41;;;;;;;15.08;13.10;;;;;;;15.83;87.63;99069.38;1946870;88;21151;-73
2021/08/06 06:34:43;;;;;;;16.20;13.45;;;;;;;15.87;87.32;99063.86;1948869;88;21058;-78
2021/08/06 06:37:44;;;;;;;14.50;12.80;;;;;;;15.86;86.98;99058.23;1967802;88;21664;-73
2021/08/06 06:40:47;;;;;;;15.85;12.95;;;;;;;15.85;86.92;99057.91;1964950;88;21099;-74
2021/08/06 06:43:59;;;;;;;13.78;11.90;;;;;;;15.82;86.66;99072.55;1971358;88;21110;-77
2021/08/06 06:47:01;;;;;;;13.75;12.35;;;;;;;15.85;86.78;99078.81;1961925;88;21121;-72
2021/08/06 06:50:04;;;;;;;14.90;12.20;;;;;;;15.86;86.57;99077.77;1960575;88;21115;-74
2021/08/06 06:53:06;;;;;;;14.90;11.22;;;;;;;15.88;86.46;99078.36;1961074;88;21138;-78
2021/08/06 06:56:07;;;;;;;10.95;9.90;;;;;;;15.82;86.29;99072.55;1963000;88;21130;-74
2021/08/06 06:59:09;;;;;;;11.63;10.50;;;;;;;15.87;86.23;99081.25;1981081;88;21080;-73
2021/08/06 07:02:12;;;;;;;10.53;9.33;;;;;;;15.90;86.18;99080.27;1969653;88;21207;-74
2021/08/06 07:05:15;;;;;;;13.15;9.60;;;;;;;15.95;85.83;99080.13;1980234;87;21580;-71
2021/08/06 07:08:16;;;;;;;10.68;9.68;;;;;;;15.98;85.60;99081.81;1963305;88;21126;-75
2021/08/06 07:11:19;;;;;;;10.25;9.28;;;;;;;16.03;85.75;99089.17;1986521;87;21376;-74
2021/08/06 07:14:20;;;;;;;10.35;9.35;;;;;;;16.07;85.59;99088.47;2006526;86;21608;-74
2021/08/06 07:17:22;;;;;;;12.18;9.28;;;;;;;16.09;85.35;99092.27;2015270;85;21096;-73
2021/08/06 07:20:24;;;;;;;12.80;8.75;;;;;;;16.09;85.11;99093.61;2031584;84;21758;-71
2021/08/06 07:23:25;;;;;;;10.85;8.55;;;;;;;16.10;84.98;99101.39;2008865;86;21620;-71
2021/08/06 07:26:28;;;;;;;11.18;7.30;;;;;;;16.18;84.88;99108.81;2021825;85;21112;-70
2021/08/06 07:29:30;;;;;;;8.08;7.20;;;;;;;16.22;84.73;99100.61;2012609;85;21116;-73
2021/08/06 07:32:32;;;;;;;9.05;6.28;;;;;;;16.32;84.76;99107.05;2017556;85;21682;-71
2021/08/06 07:35:34;;;;;;;7.22;6.10;;;;;;;16.42;84.03;99113.20;2020242;85;21511;-72
2021/08/06 07:38:36;;;;;;;8.53;6.22;;;;;;;16.52;84.10;99104.59;2011165;86;21149;-76
2021/08/06 07:41:37;;;;;;;6.80;6.10;;;;;;;16.67;84.05;99113.52;2008824;86;21124;-76
2021/08/06 07:44:39;;;;;;;7.87;5.87;;;;;;;16.82;83.36;99111.26;2019002;86;21052;-78
2021/08/06 07:47:41;;;;;;;7.03;5.58;;;;;;;16.97;83.12;99106.77;2024421;85;21739;-77
2021/08/06 07:50:43;;;;;;;6.25;5.22;;;;;;;17.14;82.75;99112.24;2008948;85;21645;-77
2021/08/06 07:53:45;;;;;;;7.03;5.62;;;;;;;17.31;82.75;99111.01;2008014;85;21121;-82
2021/08/06 07:56:47;;;;;;;5.10;4.55;;;;;;;17.42;82.17;99122.24;2008651;86;21094;-76
2021/08/06 07:59:48;;;;;;;8.10;4.97;;;;;;;17.56;82.19;99114.76;2026623;85;21208;-76
2021/08/06 08:02:50;;;;;;;5.70;4.92;;;;;;;17.68;81.55;99119.06;2021310;86;21124;-77
2021/08/06 08:06:00;;;;;;;5.28;4.75;;;;;;;17.80;81.42;99123.08;2011216;86;21157;-76
2021/08/06 08:09:01;;;;;;;5.20;4.00;;;;;;;17.87;80.58;99115.69;2003102;85;21132;-79
2021/08/06 08:12:04;;;;;;;5.25;4.12;;;;;;;17.94;80.24;99119.59;2001237;86;21121;-76
2021/08/06 08:15:09;;;;;;;5.17;4.17;;;;;;;18.02;79.55;99117.87;2022186;84;21101;-76
2021/08/06 08:18:11;;;;;;;4.83;3.98;;;;;;;18.04;78.63;99123.79;2018460;85;21117;-77
2021/08/06 08:21:14;;;;;;;5.83;3.37;;;;;;;18.08;77.65;99129.52;2001745;85;21409;-76
2021/08/06 08:24:17;;;;;;;4.75;3.52;;;;;;;18.09;77.71;99121.74;2028788;85;21073;-76
2021/08/06 08:27:20;;;;;;;8.50;3.62;;;;;;;18.16;77.92;99122.42;2016994;86;21657;-77
2021/08/06 08:30:22;;;;;;;6.97;3.47;;;;;;;18.29;77.63;99119.42;2003518;85;21150;-76
2021/08/06 08:33:25;;;;;;;4.65;3.40;;;;;;;18.39;76.02;99117.46;2003777;86;21105;-78
2021/08/06 08:36:28;;;;;;;3.22;2.92;;;;;;;18.47;76.55;99119.75;2015906;84;21101;-76
2021/08/06 08:39:31;;;;;;;3.62;3.22;;;;;;;18.58;76.16;99115.34;2014445;85;21098;-77
2021/08/06 08:42:33;;;;;;;3.72;3.15;;;;;;;18.65;75.79;99120.05;2021678;85;21188;-76
2021/08/06 08:45:40;;;;;;;4.97;2.98;;;;;;;18.77;75.95;99118.64;2014511;85;21022;-77
2021/08/06 08:48:43;;;;;;;3.85;3.27;;;;;;;18.89;75.66;99123.93;2019817;85;21086;-76
2021/08/06 08:51:48;;;;;;;3.45;3.00;;;;;;;19.03;75.41;99129.25;2012547;85;21073;-76
2021/08/06 08:54:51;;;;;;;4.08;2.80;;;;;;;19.10;74.53;99129.91;2021584;85;21632;-76
2021/08/06 08:57:54;;;;;;;3.05;2.75;;;;;;;19.18;73.70;99130.03;2017107;85;21728;-79
2021/08/06 09:00:58;;;;;;;5.17;2.33;;;;;;;19.21;72.69;99139.75;2004098;86;21105;-83
2021/08/06 09:04:00;;;;;;;3.10;2.50;;;;;;;19.26;72.97;99139.83;1989866;86;21160;-77
2021/08/06 09:07:08;;;;;;;5.25;2.33;;;;;;;19.27;71.88;99136.61;2011120;86;21100;-78
2021/08/06 09:10:19;;;;;;;3.20;2.35;;;;;;;19.28;72.13;99139.57;2023552;85;21077;-77
2021/08/06 09:13:28;;;;;;;3.87;2.33;;;;;;;19.34;71.68;99137.77;1981577;86;21095;-77
2021/08/06 09:16:32;;;;;;;3.85;2.42;;;;;;;19.31;69.65;99135.58;2009795;86;21118;-78
2021/08/06 09:19:44;;;;;;;3.83;2.35;;;;;;;19.31;70.30;99139.61;2037810;85;21172;-78
2021/08/06 09:22:47;;;;;;;2.40;2.20;;;;;;;19.39;70.21;99137.84;2007406;85;21145;-76
2021/08/06 09:25:49;;;;;;;3.00;2.15;;;;;;;19.46;69.87;99145.22;2009635;85;21152;-76
2021/08/06 09:29:09;;;;;;;2.50;2.30;;;;;;;19.59;68.49;99142.68;2016733;86;21112;-76
2021/08/06 09:32:11;;;;;;;2.30;2.10;;;;;;;19.74;67.41;99143.42;2023125;86;21156;-77
2021/08/06 09:35:16;;;;;;;5.40;1.90;;;;;;;19.88;67.91;99146.05;2016562;86;21076;-77
2021/08/06 09:38:19;;;;;;;2.58;1.98;;;;;;;20.06;68.30;99142.20;2010376;85;21125;-76
2021/08/06 09:41:41;;;;;;;4.83;2.00;;;;;;;20.33;68.00;99148.42;2003211;86;21085;-77
2021/08/06 09:44:44;;;;;;;3.85;2.30;;;;;;;20.54;68.00;99153.50;2018914;85;21135;-78
2021/08/06 09:47:54;;;;;;;2.50;2.30;;;;;;;20.61;66.52;99156.00;2022328;85;21176;-76
2021/08/06 09:50:52;;;;;;;2.45;2.22;;;;;;;20.50;63.97;99153.70;2022682;85;21086;-79
2021/08/06 09:53:54;;;;;;;3.25;2.10;;;;;;;20.42;65.77;99158.20;2017818;85;21087;-76
2021/08/06 09:57:09;;;;;;;2.20;2.10;;;;;;;20.33;65.61;99158.39;2012765;85;21518;-79
2021/08/06 10:00:17;;;;;;;2.87;2.50;;;;;;;20.35;65.25;99157.58;2017965;85;21386;-77
2021/08/06 10:03:35;;;;;;;5.12;2.70;;;;;;;20.32;65.61;99160.25;2026514;84;21084;-76
2021/08/06 10:06:37;;;;;;;3.40;2.25;;;;;;;20.43;65.75;99154.44;2006084;85;21113;-77
2021/08/06 10:09:39;;;;;;;3.27;2.08;;;;;;;20.63;65.96;99157.88;1989422;86;21169;-76
2021/08/06 10:12:40;;;;;;;2.40;1.92;;;;;;;20.85;64.09;99156.45;2007255;84;21599;-76
2021/08/06 10:15:42;;;;;;;2.30;1.90;;;;;;;20.84;62.96;99156.19;2015231;85;21121;-78
2021/08/06 10:18:44;;;;;;;6.15;2.00;;;;;;;20.89;62.76;99156.23;2016604;86;21092;-75
2021/08/06 10:21:46;;;;;;;4.20;2.10;;;;;;;21.14;62.22;99158.83;2011996;85;21104;-73
2021/08/06 10:24:52;;;;;;;1.92;1.80;;;;;;;21.36;61.33;99152.77;2004277;85;21108;-75
2021/08/06 10:27:55;;;;;;;1.87;1.77;;;;;;;21.58;61.17;99155.35;2020986;85;21658;-72
2021/08/06 10:31:18;;;;;;;5.33;1.82;;;;;;;21.70;60.10;99157.83;2026053;85;21126;-73
2021/08/06 10:34:19;;;;;;;3.83;2.02;;;;;;;21.70;59.34;99166.73;2001491;85;21112;-77
2021/08/06 10:37:57;;;;;;;3.80;1.47;;;;;;;21.66;57.58;99160.25;2006744;85;21225;-73
2021/08/06 10:41:01;;;;;;;1.80;1.70;;;;;;;21.52;57.46;99163.16;2007263;86;21144;-71
2021/08/06 10:44:06;;;;;;;1.70;1.27;;;;;;;21.18;56.20;99172.09;2017242;85;22072;-71
2021/08/06 10:47:07;;;;;;;2.50;1.57;;;;;;;20.80;55.12;99170.70;2017064;85;21163;-72
2021/08/06 10:50:16;;;;;;;2.55;1.60;;;;;;;20.55;54.91;99175.35;2018325;85;21090;-72
2021/08/06 10:53:20;;;;;;;1.98;1.60;;;;;;;20.39;54.63;99173.53;2021216;85;21221;-72
2021/08/06 10:56:33;;;;;;;1.67;1.57;;;;;;;20.37;55.80;99171.63;2004403;86;21387;-71
2021/08/06 10:59:39;;;;;;;1.70;1.60;;;;;;;20.36;55.96;99167.31;2024685;86;21069;-71
2021/08/06 11:02:43;;;;;;;2.37;1.57;;;;;;;20.54;55.65;99167.51;2016291;85;21097;-71
2021/08/06 11:05:45;;;;;;;1.75;1.65;;;;;;;20.59;55.75;99168.91;2016866;85;21137;-76
2021/08/06 11:08:48;;;;;;;1.75;1.65;;;;;;;20.62;55.10;99171.63;2002937;86;21141;-74
2021/08/06 11:12:12;;;;;;;2.42;1.85;;;;;;;20.73;52.40;99167.42;2009452;85;21164;-72
2021/08/06 11:15:13;;;;;;;1.75;1.65;;;;;;;20.78;54.01;99170.70;2015545;85;21125;-76
2021/08/06 11:18:15;;;;;;;2.45;1.90;;;;;;;20.78;54.86;99159.38;2017640;85;21093;-71
2021/08/06 11:21:18;;;;;;;3.98;2.20;;;;;;;20.84;54.46;99164.82;2020116;85;21105;-81
2021/08/06 11:24:20;;;;;;;2.08;1.65;;;;;;;20.92;54.92;99163.81;2006995;86;21131;-72
2021/08/06 11:27:42;;;;;;;1.52;1.42;;;;;;;21.01;54.37;99158.20;2023276;85;21140;-73
2021/08/06 11:30:43;;;;;;;6.05;1.70;;;;;;;20.91;53.43;99162.70;2015812;85;21083;-72
2021/08/06 11:33:44;;;;;;;2.17;1.80;;;;;;;20.84;54.19;99162.13;2015139;86;21148;-74
2021/08/06 11:36:57;;;;;;;4.20;1.67;;;;;;;20.75;53.37;99164.45;1994527;86;22398;-72
2021/08/06 11:40:10;;;;;;;2.60;1.98;;;;;;;20.74;54.64;99162.83;2016934;86;21161;-72
2021/08/06 11:43:21;;;;;;;2.65;1.90;;;;;;;20.76;54.09;99161.52;2023403;86;21360;-71
2021/08/06 11:46:22;;;;;;;3.45;1.77;;;;;;;21.08;54.42;99163.91;1978040;88;21188;-75
2021/08/06 11:49:24;;;;;;;1.80;1.70;;;;;;;21.57;55.33;99159.14;1997438;86;21630;-74
2021/08/06 11:52:39;;;;;;;4.08;1.90;;;;;;;22.01;53.97;99150.66;1989313;85;21116;-74
2021/08/06 11:55:42;;;;;;;3.02;2.05;;;;;;;22.41;54.20;99155.11;1989216;86;21103;-77
2021/08/06 11:58:44;;;;;;;2.87;1.90;;;;;;;22.73;52.59;99146.78;1985887;87;21128;-77
2021/08/06 12:01:46;;;;;;;2.22;1.60;;;;;;;22.68;50.31;99146.22;1978987;86;21150;-76
2021/08/06 12:04:47;;;;;;;3.30;1.70;;;;;;;22.57;46.60;99135.94;1984430;86;21187;-72
2021/08/06 12:07:49;;;;;;;1.98;1.60;;;;;;;22.74;50.42;99141.08;1984068;86;21122;-72
2021/08/06 12:10:57;;;;;;;2.75;1.70;;;;;;;22.98;49.27;99139.23;1988667;87;21586;-74
2021/08/06 12:14:03;;;;;;;2.42;1.50;;;;;;;23.09;46.73;99128.67;1977262;87;21147;-76
2021/08/06 12:17:05;;;;;;;2.10;1.85;;;;;;;23.23;48.98;99135.68;1983345;88;21159;-74
2021/08/06 12:20:08;;;;;;;3.25;1.60;;;;;;;23.52;50.41;99141.83;1987990;86;21123;-77
2021/08/06 12:23:12;;;;;;;2.30;1.90;;;;;;;23.77;48.77;99140.41;1974691;88;21080;-75
2021/08/06 12:26:42;;;;;;;4.25;1.90;;;;;;;23.65;47.60;99137.99;1948585;87;21186;-75
2021/08/06 12:29:43;;;;;;;2.35;1.72;;;;;;;23.38;47.11;99140.23;1990786;85;21134;-73
2021/08/06 12:32:45;;;;;;;2.22;1.77;;;;;;;23.46;48.11;99135.07;1949207;89;21147;-85
2021/08/06 12:35:46;;;;;;;3.50;1.60;;;;;;;23.44;46.72;99136.43;2004634;86;21478;-74
2021/08/06 12:38:51;;;;;;;1.87;1.47;;;;;;;23.27;47.24;99128.62;2004101;86;21091;-71
2021/08/06 12:41:54;;;;;;;2.22;1.62;;;;;;;23.09;46.64;99123.26;1999678;87;21151;-72
2021/08/06 12:45:08;;;;;;;2.08;1.72;;;;;;;23.10;46.51;99114.05;2003773;85;21053;-78
2021/08/06 12:48:09;;;;;;;2.17;1.70;;;;;;;23.18;44.50;99128.92;1999685;85;21081;-71
2021/08/06 12:51:18;;;;;;;1.60;1.50;;;;;;;23.24;43.93;99121.05;2002070;86;21168;-72
2021/08/06 12:54:40;;;;;;;6.33;1.90;;;;;;;23.05;44.81;99127.58;1996068;86;21240;-77
2021/08/06 12:57:59;;;;;;;1.50;1.40;;;;;;;23.10;45.29;99122.71;2001565;86;21201;-72
2021/08/06 13:01:01;;;;;;;3.25;1.90;;;;;;;23.17;43.08;99122.70;1991160;86;21171;-82
2021/08/06 13:04:03;;;;;;;1.72;1.57;;;;;;;23.03;44.08;99121.10;1913135;89;22613;-72
2021/08/06 13:07:06;;;;;;;2.15;1.75;;;;;;;22.98;43.49;99123.00;1966100;87;21109;-74
2021/08/06 13:10:26;;;;;;;1.50;1.40;;;;;;;22.91;44.83;99135.95;1957008;88;22331;-78
2021/08/06 13:13:33;;;;;;;;;;;;;;;22.91;45.01;99138.10;1966231;87;21103;-72
2021/08/06 13:16:35;;;;;;;2.12;1.70;;;;;;;22.90;45.15;99135.14;1958820;86;20512;-78
2021/08/06 13:19:38;;;;;;;2.15;1.70;;;;;;;22.86;45.23;99138.65;1968215;88;21152;-72
2021/08/06 13:22:41;;;;;;;2.27;1.60;;;;;;;22.92;45.05;99146.51;1967102;88;21084;-75
2021/08/06 13:25:44;;;;;;;2.15;1.65;;;;;;;22.98;45.47;99144.09;1955525;87;21064;-77
2021/08/06 13:28:46;;;;;;;4.47;1.85;;;;;;;22.99;44.88;99137.59;1971725;88;21190;-79
2021/08/06 13:31:48;;;;;;;2.35;1.80;;;;;;;22.96;44.79;99142.20;1963957;88;21185;-72
2021/08/06 13:34:49;;;;;;;4.05;1.67;;;;;;;23.00;45.30;99143.80;1970581;88;21381;-76
2021/08/06 13:37:51;;;;;;;2.12;1.62;;;;;;;23.10;45.69;99137.05;1958630;86;21094;-76
2021/08/06 13:40:52;;;;;;;2.95;1.80;;;;;;;22.98;44.41;99137.88;1979075;87;21141;-77
2021/08/06 13:43:54;;;;;;;2.00;1.70;;;;;;;22.95;44.80;99139.75;2006791;86;21120;-85
2021/08/06 13:46:56;;;;;;;2.42;1.80;;;;;;;23.02;45.31;99144.35;2008491;86;21097;-78
2021/08/06 13:49:57;;;;;;;1.80;1.65;;;;;;;23.14;45.20;99144.87;2015416;85;21152;-73
2021/08/06 13:52:59;;;;;;;2.42;1.55;;;;;;;23.25;45.06;99139.70;1965207;88;21601;-74
2021/08/06 13:56:01;;;;;;;4.10;1.60;;;;;;;23.35;45.24;99144.85;1969838;88;21130;-87
2021/08/06 13:59:03;;;;;;;3.17;1.50;;;;;;;23.36;44.92;99143.75;1969034;87;21106;-73
2021/08/06 14:02:05;;;;;;;3.47;1.77;;;;;;;23.29;44.29;99150.02;1964002;89;21070;-75
2021/08/06 14:05:07;;;;;;;2.40;1.80;;;;;;;23.05;44.25;99152.73;1978072;86;21079;-76
2021/08/06 14:08:09;;;;;;;2.52;1.75;;;;;;;22.92;45.14;99160.55;2010583;85;22691;-72
2021/08/06 14:11:11;;;;;;;1.72;1.60;;;;;;;22.73;45.12;99159.75;2014941;85;21650;-73
2021/08/06 14:14:12;;;;;;;1.77;1.60;;;;;;;22.67;45.63;99164.89;2012907;86;21803;-77